Time;durP1;ratioP1;P1;durP2;ratioP2;P2;SDS_P1;SDS_P2;PMS_P1;PMS_P2;Temp;Humidity;BMP_temperature;BMP_pressure;BME280_temperature;BME280_humidity;BME280_pressure;Samples;Min_cycle;Max_cycle;Signal;HPM_P1;HPM_P2
2022/08/09 00:00:10;;;;;;;1.98;1.20;;;;;;;;;;7391113;19;20471;-64
2022/08/09 00:02:36;;;;;;;1.90;1.40;;;;;;;;;;7387635;19;19999;-64
2022/08/09 00:05:03;;;;;;;2.28;1.20;;;;;;;;;;7388671;19;20013;-64
2022/08/09 00:07:28;;;;;;;1.25;1.10;;;;;;;;;;7389084;19;20027;-64
2022/08/09 00:09:54;;;;;;;2.58;1.20;;;;;;;;;;7388688;19;20002;-64
2022/08/09 00:12:20;;;;;;;1.80;1.40;;;;;;;;;;7390381;19;20002;-64
2022/08/09 00:14:46;;;;;;;3.80;1.50;;;;;;;;;;7388976;19;20002;-64
2022/08/09 00:17:11;;;;;;;2.92;1.40;;;;;;;;;;7388300;19;20009;-65
2022/08/09 00:19:36;;;;;;;2.08;1.40;;;;;;;;;;7394281;19;20002;-64
2022/08/09 00:22:03;;;;;;;3.35;1.60;;;;;;;;;;7389552;19;20008;-63
2022/08/09 00:24:30;;;;;;;1.77;1.23;;;;;;;;;;7390413;19;20076;-63
2022/08/09 00:26:57;;;;;;;2.50;1.45;;;;;;;;;;7387232;19;20022;-63
2022/08/09 00:29:22;;;;;;;1.95;1.30;;;;;;;;;;7389974;19;20009;-64
2022/08/09 00:31:48;;;;;;;1.30;1.20;;;;;;;;;;7388189;19;20002;-64
2022/08/09 00:34:13;;;;;;;2.97;1.55;;;;;;;;;;7389584;19;20023;-64
2022/08/09 00:36:38;;;;;;;1.77;1.40;;;;;;;;;;7386222;19;19999;-64
2022/08/09 00:39:04;;;;;;;1.55;1.27;;;;;;;;;;7389454;19;20010;-63
2022/08/09 00:41:29;;;;;;;3.22;1.40;;;;;;;;;;7388887;19;20006;-63
2022/08/09 00:43:55;;;;;;;1.60;1.23;;;;;;;;;;7387848;19;20007;-63
2022/08/09 00:46:20;;;;;;;1.25;1.15;;;;;;;;;;7386477;19;20105;-64
2022/08/09 00:48:46;;;;;;;2.92;1.40;;;;;;;;;;7389133;19;19999;-64
2022/08/09 00:51:15;;;;;;;1.23;1.13;;;;;;;;;;7389218;19;20009;-64
2022/08/09 00:53:41;;;;;;;2.85;1.40;;;;;;;;;;7389544;19;20027;-64
2022/08/09 00:56:07;;;;;;;1.60;1.23;;;;;;;;;;7384525;19;19999;-65
2022/08/09 00:58:36;;;;;;;2.33;1.20;;;;;;;;;;7387275;19;20485;-65
2022/08/09 01:01:10;;;;;;;2.03;1.10;;;;;;;;;;7388368;19;20464;-64
2022/08/09 01:03:56;;;;;;;1.77;1.40;;;;;;;;;;7388968;19;20011;-65
2022/08/09 01:07:03;;;;;;;3.03;1.25;;;;;;;;;;7385843;19;20003;-64
2022/08/09 01:10:10;;;;;;;4.70;1.73;;;;;;;;;;7387366;19;19998;-65
2022/08/09 01:12:49;;;;;;;4.32;1.48;;;;;;;;;;7384568;19;20472;-65
2022/08/09 01:15:21;;;;;;;2.30;1.30;;;;;;;;;;7382077;19;20010;-64
2022/08/09 01:18:09;;;;;;;2.55;1.40;;;;;;;;;;7386344;19;20050;-63
2022/08/09 01:21:05;;;;;;;1.83;1.30;;;;;;;;;;7385856;19;20675;-64
2022/08/09 01:23:56;;;;;;;1.33;1.20;;;;;;;;;;7392979;19;20002;-64
2022/08/09 01:26:47;;;;;;;2.72;1.40;;;;;;;;;;7385031;19;20014;-64
2022/08/09 01:29:15;;;;;;;1.85;1.33;;;;;;;;;;7388451;19;19999;-64
2022/08/09 01:31:43;;;;;;;2.85;1.40;;;;;;;;;;7387562;19;20476;-64
2022/08/09 01:34:15;;;;;;;2.25;1.27;;;;;;;;;;7386410;19;20007;-64
2022/08/09 01:36:44;;;;;;;3.05;1.85;;;;;;;;;;7386415;19;20002;-64
2022/08/09 01:39:10;;;;;;;0.88;0.88;;;;;;;;;;7387348;19;20388;-64
2022/08/09 01:41:40;;;;;;;1.67;1.48;;;;;;;;;;7387306;19;20018;-64
2022/08/09 01:44:06;;;;;;;1.73;1.17;;;;;;;;;;7395364;19;20055;-64
2022/08/09 01:46:41;;;;;;;2.67;1.38;;;;;;;;;;7391386;19;20003;-64
2022/08/09 01:49:24;;;;;;;2.90;1.27;;;;;;;;;;7395502;19;20502;-65
2022/08/09 01:51:58;;;;;;;2.85;1.50;;;;;;;;;;7393055;19;20508;-64
2022/08/09 01:54:30;;;;;;;5.85;1.30;;;;;;;;;;7394438;19;20719;-64
2022/08/09 01:56:58;;;;;;;3.83;1.25;;;;;;;;;;7393616;19;20003;-64
2022/08/09 01:59:24;;;;;;;1.58;0.95;;;;;;;;;;7393636;19;20017;-65
2022/08/09 02:01:53;;;;;;;0.82;0.82;;;;;;;;;;7393528;19;20014;-65
2022/08/09 02:04:20;;;;;;;1.48;1.23;;;;;;;;;;7394364;19;20479;-65
2022/08/09 02:09:35;;;;;;;1.30;1.20;;;;;;;;;;7395231;19;20017;-65
2022/08/09 02:12:03;;;;;;;2.38;1.45;;;;;;;;;;7394656;19;20031;-64
2022/08/09 02:14:30;;;;;;;1.85;1.20;;;;;;;;;;7393860;19;20006;-64
2022/08/09 02:16:57;;;;;;;3.35;1.30;;;;;;;;;;7392865;19;20010;-64
2022/08/09 02:19:23;;;;;;;2.22;1.30;;;;;;;;;;7395955;19;20360;-63
2022/08/09 02:21:51;;;;;;;1.95;1.17;;;;;;;;;;7391560;19;20007;-64
2022/08/09 02:24:20;;;;;;;1.80;1.33;;;;;;;;;;7393396;19;20003;-64
2022/08/09 02:26:47;;;;;;;1.60;1.00;;;;;;;;;;7392328;19;20080;-64
2022/08/09 02:29:22;;;;;;;5.43;1.42;;;;;;;;;;7393767;19;20336;-64
2022/08/09 02:31:50;;;;;;;1.20;1.08;;;;;;;;;;7393822;19;20007;-64
2022/08/09 02:34:25;;;;;;;5.45;1.27;;;;;;;;;;7393352;19;20002;-64
2022/08/09 02:36:53;;;;;;;1.35;1.20;;;;;;;;;;7391012;19;20006;-64
2022/08/09 02:39:23;;;;;;;1.35;0.88;;;;;;;;;;7392000;19;20002;-64
2022/08/09 02:42:21;;;;;;;0.70;0.70;;;;;;;;;;7393199;19;19994;-64
2022/08/09 02:44:51;;;;;;;3.03;1.33;;;;;;;;;;7390039;19;20519;-64
2022/08/09 02:47:19;;;;;;;1.52;1.30;;;;;;;;;;7392925;19;20010;-64
2022/08/09 02:49:51;;;;;;;1.05;1.00;;;;;;;;;;7392981;19;20498;-63
2022/08/09 02:52:18;;;;;;;2.83;1.35;;;;;;;;;;7393285;19;20036;-63
2022/08/09 02:54:53;;;;;;;1.20;1.10;;;;;;;;;;7389014;19;20024;-68
2022/08/09 02:57:19;;;;;;;3.30;1.50;;;;;;;;;;7393012;19;20002;-64
2022/08/09 02:59:46;;;;;;;2.60;1.80;;;;;;;;;;7392883;19;20007;-64
2022/08/09 03:02:14;;;;;;;1.92;1.33;;;;;;;;;;7391237;19;19999;-64
2022/08/09 03:04:41;;;;;;;2.13;1.30;;;;;;;;;;7389905;19;20006;-64
2022/08/09 03:07:07;;;;;;;1.25;1.10;;;;;;;;;;7391285;19;19998;-64
2022/08/09 03:09:33;;;;;;;2.63;1.40;;;;;;;;;;7392383;19;20002;-64
2022/08/09 03:12:00;;;;;;;2.90;1.35;;;;;;;;;;7391838;19;20539;-64
2022/08/09 03:14:28;;;;;;;1.13;1.02;;;;;;;;;;7391241;19;20739;-64
2022/08/09 03:16:54;;;;;;;1.23;1.00;;;;;;;;;;7389717;19;19999;-64
2022/08/09 03:19:20;;;;;;;2.40;1.50;;;;;;;;;;7395921;19;20003;-64
2022/08/09 03:21:49;;;;;;;1.75;1.50;;;;;;;;;;7390505;19;20038;-63
2022/08/09 03:24:17;;;;;;;3.38;1.52;;;;;;;;;;7390943;19;20050;-64
2022/08/09 03:26:44;;;;;;;1.60;1.25;;;;;;;;;;7390214;19;20006;-65
2022/08/09 03:29:11;;;;;;;1.50;1.17;;;;;;;;;;7391563;19;19998;-63
2022/08/09 03:31:39;;;;;;;1.55;1.33;;;;;;;;;;7395187;19;19995;-64
2022/08/09 03:34:06;;;;;;;1.98;1.27;;;;;;;;;;7389547;19;20058;-64
2022/08/09 03:36:31;;;;;;;2.65;1.60;;;;;;;;;;7385828;19;20078;-63
2022/08/09 03:38:57;;;;;;;1.60;1.30;;;;;;;;;;7394791;19;20448;-66
2022/08/09 03:41:23;;;;;;;2.75;1.10;;;;;;;;;;7390170;19;20023;-64
2022/08/09 03:43:48;;;;;;;1.77;1.20;;;;;;;;;;7390815;19;20348;-64
2022/08/09 03:46:14;;;;;;;1.92;1.40;;;;;;;;;;7387405;19;20082;-64
2022/08/09 03:48:41;;;;;;;2.42;1.52;;;;;;;;;;7390524;19;20086;-64
2022/08/09 03:51:08;;;;;;;3.17;1.60;;;;;;;;;;7390462;19;19998;-64
2022/08/09 03:53:34;;;;;;;2.08;1.40;;;;;;;;;;7390312;19;20003;-64
2022/08/09 03:56:00;;;;;;;8.57;1.70;;;;;;;;;;7387325;19;20031;-64
2022/08/09 03:58:26;;;;;;;2.05;1.40;;;;;;;;;;7391068;19;20002;-64
2022/08/09 04:00:53;;;;;;;6.13;1.45;;;;;;;;;;7390490;19;20007;-64
2022/08/09 04:03:19;;;;;;;1.75;1.45;;;;;;;;;;7386554;19;20488;-64
2022/08/09 04:05:45;;;;;;;5.80;1.85;;;;;;;;;;7386505;19;20073;-63
2022/08/09 04:08:10;;;;;;;2.70;1.40;;;;;;;;;;7388405;19;20030;-63
2022/08/09 04:10:35;;;;;;;2.47;1.35;;;;;;;;;;7390318;19;20014;-64
2022/08/09 04:13:08;;;;;;;2.65;1.30;;;;;;;;;;7390379;19;20013;-65
2022/08/09 04:15:33;;;;;;;3.53;1.48;;;;;;;;;;7387803;19;20006;-64
2022/08/09 04:17:58;;;;;;;4.65;1.92;;;;;;;;;;7390800;19;20013;-64
2022/08/09 04:20:24;;;;;;;1.80;1.20;;;;;;;;;;7390553;19;20400;-64
2022/08/09 04:22:49;;;;;;;3.60;1.50;;;;;;;;;;7388789;19;20476;-64
2022/08/09 04:25:15;;;;;;;4.78;1.77;;;;;;;;;;7388050;19;20523;-64
2022/08/09 04:27:40;;;;;;;3.60;1.98;;;;;;;;;;7390231;19;20026;-64
2022/08/09 04:30:10;;;;;;;1.40;1.30;;;;;;;;;;7388409;19;19995;-64
2022/08/09 04:32:35;;;;;;;6.53;1.48;;;;;;;;;;7390242;19;20002;-64
2022/08/09 04:35:00;;;;;;;2.50;1.55;;;;;;;;;;7387853;19;20009;-64
2022/08/09 04:37:26;;;;;;;4.00;1.58;;;;;;;;;;7387768;19;19999;-64
2022/08/09 04:39:51;;;;;;;2.65;1.70;;;;;;;;;;7387382;19;20098;-64
2022/08/09 04:42:16;;;;;;;2.72;1.67;;;;;;;;;;7388057;19;20058;-63
2022/08/09 04:44:44;;;;;;;2.15;1.60;;;;;;;;;;7387235;19;20095;-63
2022/08/09 04:47:10;;;;;;;1.73;1.40;;;;;;;;;;7388085;19;20006;-63
2022/08/09 04:49:38;;;;;;;4.00;1.75;;;;;;;;;;7388314;19;20010;-65
2022/08/09 04:52:04;;;;;;;2.25;1.48;;;;;;;;;;7389034;19;20002;-63
2022/08/09 04:54:30;;;;;;;1.88;1.30;;;;;;;;;;7388555;19;20461;-65
2022/08/09 04:56:55;;;;;;;2.40;1.70;;;;;;;;;;7387429;19;20070;-63
2022/08/09 04:59:21;;;;;;;1.65;1.17;;;;;;;;;;7388491;19;20007;-64
2022/08/09 05:01:46;;;;;;;9.32;3.92;;;;;;;;;;7386268;19;20495;-64
2022/08/09 05:04:11;;;;;;;3.88;1.65;;;;;;;;;;7386264;19;20002;-64
2022/08/09 05:06:37;;;;;;;5.05;1.88;;;;;;;;;;7387658;19;20027;-63
2022/08/09 05:09:03;;;;;;;4.07;1.67;;;;;;;;;;7388738;19;20637;-64
2022/08/09 05:11:28;;;;;;;4.80;1.83;;;;;;;;;;7386567;19;20018;-64
2022/08/09 05:13:54;;;;;;;5.18;1.35;;;;;;;;;;7388006;19;20007;-65
2022/08/09 05:16:19;;;;;;;1.95;1.40;;;;;;;;;;7382845;19;20381;-65
2022/08/09 05:18:44;;;;;;;1.38;1.27;;;;;;;;;;7389313;19;20030;-65
2022/08/09 05:21:11;;;;;;;2.63;1.40;;;;;;;;;;7388558;19;20181;-63
2022/08/09 05:23:36;;;;;;;3.45;1.50;;;;;;;;;;7387909;19;19991;-65
2022/08/09 05:26:01;;;;;;;2.97;1.50;;;;;;;;;;7382915;19;20341;-65
2022/08/09 05:28:27;;;;;;;1.80;1.40;;;;;;;;;;7389450;19;19991;-65
2022/08/09 05:30:52;;;;;;;3.42;1.63;;;;;;;;;;7386130;19;19991;-64
2022/08/09 05:33:17;;;;;;;7.53;2.80;;;;;;;;;;7391824;19;20009;-65
2022/08/09 05:35:43;;;;;;;3.72;1.90;;;;;;;;;;7384530;19;19994;-65
2022/08/09 05:38:08;;;;;;;1.60;1.33;;;;;;;;;;7387512;19;20002;-64
2022/08/09 05:40:33;;;;;;;2.47;1.70;;;;;;;;;;7387228;19;20484;-65
2022/08/09 05:42:59;;;;;;;4.22;1.35;;;;;;;;;;7385478;19;19999;-64
2022/08/09 05:45:24;;;;;;;1.88;1.50;;;;;;;;;;7382811;19;20034;-64
2022/08/09 05:47:49;;;;;;;3.22;1.45;;;;;;;;;;7386926;19;19991;-66
2022/08/09 05:50:15;;;;;;;2.00;1.63;;;;;;;;;;7386611;19;19999;-63
2022/08/09 05:52:42;;;;;;;4.03;1.38;;;;;;;;;;7390740;19;20025;-65
2022/08/09 05:55:09;;;;;;;1.92;1.30;;;;;;;;;;7388396;19;20012;-66
2022/08/09 05:57:35;;;;;;;4.70;1.80;;;;;;;;;;7388365;19;19991;-65
2022/08/09 06:00:00;;;;;;;1.60;1.30;;;;;;;;;;7388203;19;20545;-65
2022/08/09 06:02:26;;;;;;;1.88;1.50;;;;;;;;;;7389120;19;19991;-65
2022/08/09 06:04:51;;;;;;;3.42;1.70;;;;;;;;;;7389483;19;20019;-65
2022/08/09 06:07:22;;;;;;;2.78;1.65;;;;;;;;;;7389230;19;20370;-66
2022/08/09 06:09:48;;;;;;;2.88;1.92;;;;;;;;;;7388678;19;19998;-64
2022/08/09 06:12:14;;;;;;;1.55;1.45;;;;;;;;;;7386477;19;20435;-63
2022/08/09 06:14:39;;;;;;;2.63;1.60;;;;;;;;;;7385990;19;20149;-64
2022/08/09 06:17:04;;;;;;;2.17;1.45;;;;;;;;;;7382980;19;19998;-64
2022/08/09 06:19:30;;;;;;;1.27;1.15;;;;;;;;;;7389166;19;20419;-69
2022/08/09 06:21:55;;;;;;;3.17;1.80;;;;;;;;;;7383451;19;20109;-69
2022/08/09 06:24:20;;;;;;;2.67;1.38;;;;;;;;;;7381830;19;20353;-69
2022/08/09 06:26:46;;;;;;;3.20;1.70;;;;;;;;;;7380131;19;20366;-69
2022/08/09 06:29:11;;;;;;;3.88;1.80;;;;;;;;;;7387805;19;20073;-69
2022/08/09 06:31:37;;;;;;;1.10;1.00;;;;;;;;;;7386689;19;20006;-69
2022/08/09 06:34:03;;;;;;;1.45;1.27;;;;;;;;;;7388951;19;20002;-69
2022/08/09 06:36:29;;;;;;;2.88;1.73;;;;;;;;;;7388016;19;19994;-69
2022/08/09 06:38:54;;;;;;;1.92;1.60;;;;;;;;;;7391357;19;20369;-68
2022/08/09 06:41:20;;;;;;;2.22;1.30;;;;;;;;;;7382834;19;20010;-67
2022/08/09 06:43:46;;;;;;;2.33;1.50;;;;;;;;;;7390945;19;20010;-68
2022/08/09 06:46:12;;;;;;;2.58;1.50;;;;;;;;;;7386116;19;20009;-68
2022/08/09 06:48:39;;;;;;;1.80;1.33;;;;;;;;;;7388346;19;20006;-66
2022/08/09 06:51:05;;;;;;;2.95;1.40;;;;;;;;;;7385465;19;20118;-65
2022/08/09 06:53:30;;;;;;;1.60;1.40;;;;;;;;;;7391233;19;19995;-65
2022/08/09 06:55:58;;;;;;;1.90;1.40;;;;;;;;;;7383806;19;20342;-64
2022/08/09 06:58:23;;;;;;;1.42;1.33;;;;;;;;;;7391803;19;20084;-65
2022/08/09 07:00:48;;;;;;;5.05;1.50;;;;;;;;;;7390472;19;20007;-65
2022/08/09 07:03:13;;;;;;;1.25;1.13;;;;;;;;;;7387662;19;20491;-65
2022/08/09 07:05:39;;;;;;;1.77;1.58;;;;;;;;;;7386783;19;20010;-64
2022/08/09 07:08:04;;;;;;;1.65;1.30;;;;;;;;;;7388420;19;20356;-65
2022/08/09 07:10:31;;;;;;;1.27;1.17;;;;;;;;;;7389900;19;20524;-63
2022/08/09 07:12:56;;;;;;;4.43;1.45;;;;;;;;;;7390583;19;20417;-65
2022/08/09 07:15:21;;;;;;;2.83;1.52;;;;;;;;;;7386305;19;20007;-64
2022/08/09 07:17:47;;;;;;;2.17;1.40;;;;;;;;;;7393265;19;20058;-63
2022/08/09 07:20:13;;;;;;;2.22;1.38;;;;;;;;;;7387482;19;20014;-64
2022/08/09 07:22:38;;;;;;;1.77;1.35;;;;;;;;;;7385738;19;20073;-64
2022/08/09 07:25:04;;;;;;;1.88;1.25;;;;;;;;;;7387610;19;20448;-63
2022/08/09 07:27:30;;;;;;;1.65;1.30;;;;;;;;;;7383064;19;19998;-64
2022/08/09 07:29:56;;;;;;;1.73;1.40;;;;;;;;;;7384470;19;20001;-63
2022/08/09 07:32:21;;;;;;;1.50;1.38;;;;;;;;;;7384820;19;20026;-65
2022/08/09 07:34:47;;;;;;;1.77;1.40;;;;;;;;;;7384409;19;20581;-64
2022/08/09 07:37:12;;;;;;;3.08;1.60;;;;;;;;;;7384594;19;20074;-64
2022/08/09 07:39:38;;;;;;;3.58;2.00;;;;;;;;;;7385053;19;19998;-64
2022/08/09 07:42:04;;;;;;;1.48;1.38;;;;;;;;;;7388368;19;20017;-64
2022/08/09 07:44:29;;;;;;;2.60;1.60;;;;;;;;;;7389956;19;20471;-64
2022/08/09 07:46:54;;;;;;;2.33;1.50;;;;;;;;;;7387281;19;20003;-64
2022/08/09 07:49:20;;;;;;;3.70;1.52;;;;;;;;;;7390014;19;20022;-64
2022/08/09 07:51:45;;;;;;;2.65;1.48;;;;;;;;;;7389884;19;20562;-64
2022/08/09 07:54:11;;;;;;;1.48;1.30;;;;;;;;;;7387715;19;20006;-66
2022/08/09 07:56:37;;;;;;;2.88;1.80;;;;;;;;;;7388667;19;20002;-64
2022/08/09 07:59:02;;;;;;;2.20;1.45;;;;;;;;;;7387966;19;20496;-64
2022/08/09 08:01:28;;;;;;;1.73;1.27;;;;;;;;;;7387719;19;20019;-65
2022/08/09 08:03:53;;;;;;;1.52;1.30;;;;;;;;;;7388388;19;20006;-64
2022/08/09 08:06:18;;;;;;;2.20;1.50;;;;;;;;;;7386767;19;20002;-65
2022/08/09 08:08:44;;;;;;;2.38;1.15;;;;;;;;;;7389464;19;20040;-65
2022/08/09 08:11:09;;;;;;;1.80;1.40;;;;;;;;;;7389372;19;20030;-65
2022/08/09 08:13:35;;;;;;;2.78;1.52;;;;;;;;;;7389600;19;19998;-65
2022/08/09 08:16:00;;;;;;;2.40;1.55;;;;;;;;;;7386477;19;19995;-65
2022/08/09 08:18:25;;;;;;;1.92;1.48;;;;;;;;;;7390839;19;19995;-63
2022/08/09 08:20:51;;;;;;;2.40;1.33;;;;;;;;;;7387825;19;20011;-64
2022/08/09 08:23:17;;;;;;;1.55;1.27;;;;;;;;;;7388098;19;20013;-64
2022/08/09 08:25:46;;;;;;;2.05;1.52;;;;;;;;;;7387015;19;20091;-63
2022/08/09 08:28:11;;;;;;;3.85;2.05;;;;;;;;;;7387281;19;20082;-65
2022/08/09 08:30:37;;;;;;;3.30;1.73;;;;;;;;;;7389126;19;20002;-63
2022/08/09 08:33:02;;;;;;;1.90;1.40;;;;;;;;;;7388757;19;20005;-64
2022/08/09 08:35:28;;;;;;;1.63;1.52;;;;;;;;;;7386200;19;20026;-64
2022/08/09 08:37:55;;;;;;;2.65;1.38;;;;;;;;;;7388465;19;20479;-63
2022/08/09 08:40:20;;;;;;;3.28;1.70;;;;;;;;;;7388589;19;20054;-63
2022/08/09 08:42:46;;;;;;;3.15;1.40;;;;;;;;;;7384849;19;20485;-64
2022/08/09 08:45:13;;;;;;;2.58;1.83;;;;;;;;;;7387414;19;20078;-64
2022/08/09 08:47:41;;;;;;;2.50;1.48;;;;;;;;;;7386892;19;20003;-64
2022/08/09 08:50:07;;;;;;;2.35;1.52;;;;;;;;;;7386473;19;20011;-64
2022/08/09 08:52:32;;;;;;;1.23;1.08;;;;;;;;;;7388077;19;20033;-64
2022/08/09 08:54:59;;;;;;;2.15;1.52;;;;;;;;;;7387174;19;19999;-64
2022/08/09 08:57:26;;;;;;;2.13;1.35;;;;;;;;;;7386476;19;20045;-64
2022/08/09 08:59:52;;;;;;;3.00;1.48;;;;;;;;;;7387519;19;20006;-64
2022/08/09 09:02:25;;;;;;;2.80;1.67;;;;;;;;;;7385008;19;20465;-64
2022/08/09 09:05:00;;;;;;;2.13;1.63;;;;;;;;;;7387424;19;20489;-64
2022/08/09 09:07:27;;;;;;;2.67;1.60;;;;;;;;;;7386624;19;20003;-64
2022/08/09 09:09:54;;;;;;;1.52;1.42;;;;;;;;;;7388120;19;20007;-63
2022/08/09 09:12:22;;;;;;;2.97;1.77;;;;;;;;;;7387325;19;20010;-65
2022/08/09 09:14:48;;;;;;;1.33;1.23;;;;;;;;;;7386740;19;20040;-63
2022/08/09 09:17:15;;;;;;;1.45;1.27;;;;;;;;;;7384356;19;20086;-65
2022/08/09 09:19:41;;;;;;;1.48;1.38;;;;;;;;;;7389680;19;20058;-65
2022/08/09 09:22:15;;;;;;;1.50;1.17;;;;;;;;;;7389348;19;20019;-65
2022/08/09 09:24:43;;;;;;;1.40;1.30;;;;;;;;;;7391727;19;20048;-65
2022/08/09 09:27:12;;;;;;;2.33;1.58;;;;;;;;;;7383825;19;20006;-65
2022/08/09 09:29:40;;;;;;;2.55;1.23;;;;;;;;;;7387482;19;19999;-65
2022/08/09 09:32:06;;;;;;;1.60;1.50;;;;;;;;;;7385405;19;20015;-65
2022/08/09 09:34:32;;;;;;;1.73;1.42;;;;;;;;;;7391704;19;20366;-65
2022/08/09 09:36:58;;;;;;;1.98;1.40;;;;;;;;;;7384560;19;20014;-64
2022/08/09 09:39:25;;;;;;;1.42;1.33;;;;;;;;;;7385591;19;20448;-73
2022/08/09 09:41:51;;;;;;;2.60;1.50;;;;;;;;;;7389232;19;20104;-66
2022/08/09 09:44:33;;;;;;;1.60;1.50;;;;;;;;;;7389737;19;20496;-67
2022/08/09 09:47:15;;;;;;;1.20;1.20;;;;;;;;;;7390071;19;20003;-67
2022/08/09 09:49:49;;;;;;;1.55;1.40;;;;;;;;;;7391758;19;20070;-66
2022/08/09 09:52:14;;;;;;;2.60;1.48;;;;;;;;;;7387192;19;20066;-66
2022/08/09 09:54:47;;;;;;;1.23;1.20;;;;;;;;;;7386779;19;20028;-66
2022/08/09 09:57:16;;;;;;;3.22;1.58;;;;;;;;;;7384458;19;20011;-66
2022/08/09 09:59:42;;;;;;;1.98;1.10;;;;;;;;;;7387285;19;20329;-66
2022/08/09 10:02:09;;;;;;;3.03;1.77;;;;;;;;;;7386209;19;20003;-67
2022/08/09 10:04:35;;;;;;;1.42;1.20;;;;;;;;;;7393492;19;20002;-67
2022/08/09 10:07:00;;;;;;;1.35;1.20;;;;;;;;;;7393730;19;20002;-67
2022/08/09 10:09:25;;;;;;;1.48;1.25;;;;;;;;;;7393253;19;20006;-67
2022/08/09 10:12:00;;;;;;;1.13;1.02;;;;;;;;;;7394722;19;20086;-67
2022/08/09 10:14:28;;;;;;;1.80;1.27;;;;;;;;;;7392332;19;20006;-66
2022/08/09 10:16:54;;;;;;;2.42;1.40;;;;;;;;;;7393291;19;20022;-69
2022/08/09 10:19:19;;;;;;;2.47;1.30;;;;;;;;;;7397130;19;20030;-67
2022/08/09 10:21:49;;;;;;;1.73;1.40;;;;;;;;;;7397267;19;19995;-68
2022/08/09 10:24:18;;;;;;;2.38;1.40;;;;;;;;;;7396169;19;20455;-67
2022/08/09 10:26:45;;;;;;;1.45;1.35;;;;;;;;;;7397394;19;19999;-68
2022/08/09 10:29:12;;;;;;;1.70;1.30;;;;;;;;;;7393881;19;20002;-68
2022/08/09 10:31:40;;;;;;;1.52;1.20;;;;;;;;;;7395688;19;20461;-68
2022/08/09 10:34:10;;;;;;;1.45;1.35;;;;;;;;;;7397243;19;19991;-69
2022/08/09 10:36:36;;;;;;;2.72;1.40;;;;;;;;;;7396100;19;20005;-68
2022/08/09 10:39:02;;;;;;;1.10;1.10;;;;;;;;;;7397776;19;20008;-68
2022/08/09 10:41:27;;;;;;;1.33;1.20;;;;;;;;;;7396578;19;20058;-68
2022/08/09 10:43:54;;;;;;;1.35;1.20;;;;;;;;;;7395254;19;19994;-68
2022/08/09 10:46:57;;;;;;;1.13;1.10;;;;;;;;;;7392817;19;20083;-68
2022/08/09 10:49:51;;;;;;;1.92;1.40;;;;;;;;;;7393250;19;20058;-65
2022/08/09 10:52:59;;;;;;;2.60;1.58;;;;;;;;;;7395297;19;19999;-65
2022/08/09 10:55:27;;;;;;;1.25;1.10;;;;;;;;;;7394109;19;20002;-66
2022/08/09 10:57:53;;;;;;;2.63;1.10;;;;;;;;;;7392876;19;20372;-66
2022/08/09 11:00:28;;;;;;;1.70;1.30;;;;;;;;;;7396193;19;19999;-65
2022/08/09 11:02:54;;;;;;;1.35;1.13;;;;;;;;;;7390826;19;19998;-66
2022/08/09 11:05:21;;;;;;;1.10;1.10;;;;;;;;;;7390791;19;20030;-66
2022/08/09 11:07:47;;;;;;;1.92;1.45;;;;;;;;;;7393717;19;20009;-65
2022/08/09 11:10:12;;;;;;;6.15;4.45;;;;;;;;;;7396152;19;20325;-66
2022/08/09 11:12:37;;;;;;;1.40;1.30;;;;;;;;;;7395109;19;19995;-65
2022/08/09 11:15:06;;;;;;;1.40;1.30;;;;;;;;;;7390411;19;20002;-64
2022/08/09 11:17:31;;;;;;;1.08;1.05;;;;;;;;;;7390473;19;20007;-64
2022/08/09 11:20:09;;;;;;;1.20;1.10;;;;;;;;;;7395587;19;19996;-64
2022/08/09 11:22:40;;;;;;;1.38;1.27;;;;;;;;;;7390423;19;20260;-65
2022/08/09 11:25:06;;;;;;;1.10;1.10;;;;;;;;;;7390827;19;20080;-67
2022/08/09 11:27:35;;;;;;;1.40;1.30;;;;;;;;;;7390327;19;19998;-65
2022/08/09 11:30:01;;;;;;;1.52;1.30;;;;;;;;;;7396217;19;20684;-66
2022/08/09 11:32:38;;;;;;;3.35;1.60;;;;;;;;;;7393216;19;20009;-66
2022/08/09 11:35:26;;;;;;;2.10;1.20;;;;;;;;;;7388958;19;20019;-64
2022/08/09 11:37:55;;;;;;;2.47;1.30;;;;;;;;;;7378106;19;20365;-63
2022/08/09 11:40:29;;;;;;;1.00;1.00;;;;;;;;;;7387785;19;19998;-63
2022/08/09 11:42:57;;;;;;;1.30;1.15;;;;;;;;;;7385063;19;20296;-63
2022/08/09 11:45:31;;;;;;;2.38;1.25;;;;;;;;;;7388940;19;20050;-63
2022/08/09 11:47:57;;;;;;;1.75;1.15;;;;;;;;;;7383317;19;20007;-63
2022/08/09 11:50:25;;;;;;;1.80;1.17;;;;;;;;;;7387379;19;20103;-63
2022/08/09 11:53:00;;;;;;;1.20;0.95;;;;;;;;;;7383878;19;20021;-64
2022/08/09 11:55:52;;;;;;;1.77;1.20;;;;;;;;;;7387415;19;20017;-64
2022/08/09 11:58:18;;;;;;;1.17;1.10;;;;;;;;;;7386390;19;20352;-63
2022/08/09 12:00:55;;;;;;;1.33;1.10;;;;;;;;;;7388575;19;20010;-64
2022/08/09 12:03:24;;;;;;;1.42;1.20;;;;;;;;;;7386627;19;20006;-63
2022/08/09 12:05:56;;;;;;;1.45;1.20;;;;;;;;;;7383305;19;20025;-63
2022/08/09 12:08:24;;;;;;;1.10;1.00;;;;;;;;;;7389150;19;20082;-63
2022/08/09 12:10:57;;;;;;;1.88;1.40;;;;;;;;;;7386712;19;20073;-64
2022/08/09 12:13:45;;;;;;;2.28;1.30;;;;;;;;;;7388571;19;20010;-64
2022/08/09 12:16:15;;;;;;;1.30;1.00;;;;;;;;;;7386524;19;20031;-64
2022/08/09 12:18:46;;;;;;;1.15;1.10;;;;;;;;;;7387521;19;20350;-63
2022/08/09 12:21:13;;;;;;;1.55;1.30;;;;;;;;;;7388145;19;20006;-63
2022/08/09 12:23:44;;;;;;;1.60;1.30;;;;;;;;;;7386576;19;20018;-64
2022/08/09 12:26:10;;;;;;;1.40;1.30;;;;;;;;;;7381736;19;20030;-63
2022/08/09 12:28:38;;;;;;;1.27;1.17;;;;;;;;;;7389394;19;20002;-64
2022/08/09 12:31:19;;;;;;;1.73;1.20;;;;;;;;;;7382829;19;20027;-64
2022/08/09 12:33:44;;;;;;;1.20;1.10;;;;;;;;;;7388541;19;20498;-64
2022/08/09 12:36:10;;;;;;;1.40;1.30;;;;;;;;;;7381466;19;20006;-64
2022/08/09 12:38:35;;;;;;;1.10;1.02;;;;;;;;;;7387439;19;20009;-64
2022/08/09 12:41:01;;;;;;;1.10;1.00;;;;;;;;;;7386557;19;20022;-64
2022/08/09 12:43:28;;;;;;;1.80;1.52;;;;;;;;;;7390014;19;20007;-63
2022/08/09 12:45:56;;;;;;;2.08;1.30;;;;;;;;;;7387363;19;20009;-63
2022/08/09 12:48:22;;;;;;;1.30;1.20;;;;;;;;;;7387627;19;20339;-63
2022/08/09 12:50:49;;;;;;;1.70;1.33;;;;;;;;;;7389685;19;20007;-63
2022/08/09 12:53:36;;;;;;;1.25;1.13;;;;;;;;;;7388702;19;20070;-63
2022/08/09 12:56:09;;;;;;;1.17;1.00;;;;;;;;;;7385803;19;20002;-63
2022/08/09 12:58:35;;;;;;;1.05;1.02;;;;;;;;;;7388255;19;20007;-62
2022/08/09 13:01:01;;;;;;;1.42;1.23;;;;;;;;;;7378758;19;20052;-63
2022/08/09 13:03:33;;;;;;;1.35;1.02;;;;;;;;;;7384127;19;20017;-63
2022/08/09 13:05:59;;;;;;;1.85;1.13;;;;;;;;;;7383951;19;20037;-64
2022/08/09 13:08:26;;;;;;;2.08;1.23;;;;;;;;;;7382734;19;20023;-64
2022/08/09 13:10:54;;;;;;;1.38;1.27;;;;;;;;;;7386001;19;20497;-64
2022/08/09 13:13:34;;;;;;;1.35;1.25;;;;;;;;;;7382697;19;20074;-63
2022/08/09 13:16:04;;;;;;;;;;;;;;;;;;7383939;19;20007;-64
2022/08/09 13:18:39;;;;;;;;;;;;;;;;;;7385025;19;19919;-63
2022/08/09 13:21:21;;;;;;;1.60;1.30;;;;;;;;;;7386532;19;20317;-63
2022/08/09 13:23:47;;;;;;;1.40;1.20;;;;;;;;;;7384997;19;20003;-63
2022/08/09 13:26:30;;;;;;;2.20;1.58;;;;;;;;;;7383685;19;20014;-63
2022/08/09 13:29:05;;;;;;;1.30;1.20;;;;;;;;;;7383469;19;20070;-65
2022/08/09 13:31:31;;;;;;;4.05;1.05;;;;;;;;;;7384821;19;20011;-63
2022/08/09 13:33:57;;;;;;;1.17;1.17;;;;;;;;;;7385745;19;20078;-64
2022/08/09 13:36:24;;;;;;;1.90;1.10;;;;;;;;;;7380972;19;20037;-64
2022/08/09 13:38:49;;;;;;;1.83;1.13;;;;;;;;;;7388371;19;20002;-63
2022/08/09 13:41:22;;;;;;;1.10;1.08;;;;;;;;;;7394506;19;20031;-63
2022/08/09 13:43:47;;;;;;;2.95;2.25;;;;;;;;;;7391830;19;20007;-63
2022/08/09 13:46:13;;;;;;;3.83;2.05;;;;;;;;;;7387512;19;20026;-63
2022/08/09 13:48:38;;;;;;;1.42;1.33;;;;;;;;;;7391948;19;20002;-63
2022/08/09 13:51:03;;;;;;;1.10;1.00;;;;;;;;;;7393994;19;20026;-63
2022/08/09 13:53:29;;;;;;;1.02;0.93;;;;;;;;;;7389446;19;20014;-64
2022/08/09 13:55:54;;;;;;;0.93;0.90;;;;;;;;;;7387624;19;20006;-64
2022/08/09 13:58:19;;;;;;;1.20;1.10;;;;;;;;;;7392986;19;20006;-64
2022/08/09 14:00:45;;;;;;;1.05;0.90;;;;;;;;;;7389708;19;20263;-63
2022/08/09 14:03:10;;;;;;;1.35;1.05;;;;;;;;;;7394842;19;20529;-64
2022/08/09 14:05:36;;;;;;;1.15;1.10;;;;;;;;;;7390017;19;19999;-63
2022/08/09 14:08:04;;;;;;;1.08;1.02;;;;;;;;;;7393054;19;20014;-64
2022/08/09 14:10:29;;;;;;;1.83;1.20;;;;;;;;;;7389331;19;20010;-63
2022/08/09 14:12:55;;;;;;;1.38;1.08;;;;;;;;;;7388211;19;20557;-63
2022/08/09 14:15:20;;;;;;;2.20;1.20;;;;;;;;;;7392466;19;20345;-63
2022/08/09 14:17:45;;;;;;;1.02;1.00;;;;;;;;;;7387443;19;20350;-63
2022/08/09 14:20:11;;;;;;;1.10;1.08;;;;;;;;;;7389185;19;20468;-63
2022/08/09 14:22:36;;;;;;;1.50;1.20;;;;;;;;;;7387103;19;20002;-63
2022/08/09 14:25:02;;;;;;;2.17;1.08;;;;;;;;;;7387922;19;20006;-63
2022/08/09 14:27:28;;;;;;;1.95;1.40;;;;;;;;;;7387789;19;20006;-63
2022/08/09 14:29:53;;;;;;;0.85;0.85;;;;;;;;;;7389186;19;20007;-63
2022/08/09 14:32:18;;;;;;;0.88;0.88;;;;;;;;;;7385770;19;20002;-64
2022/08/09 14:34:44;;;;;;;1.08;0.98;;;;;;;;;;7392445;19;20088;-63
2022/08/09 14:37:09;;;;;;;1.83;1.23;;;;;;;;;;7392830;19;20007;-63
2022/08/09 14:39:36;;;;;;;1.00;0.95;;;;;;;;;;7391066;19;20006;-63
2022/08/09 14:42:01;;;;;;;1.38;0.90;;;;;;;;;;7391393;19;20003;-63
2022/08/09 14:44:27;;;;;;;1.10;1.10;;;;;;;;;;7390824;19;20033;-63
2022/08/09 14:46:53;;;;;;;1.55;1.45;;;;;;;;;;7391485;19;20003;-63
2022/08/09 14:49:19;;;;;;;1.30;1.20;;;;;;;;;;7392662;19;20086;-63
2022/08/09 14:51:44;;;;;;;2.88;1.40;;;;;;;;;;7392109;19;20455;-63